Union, Illinois
Current Conditions -  °F | °C
As of 8:55 AM on Monday 22 Dec 2014 (Local Time) from KDKB Reporting Station
Haze Haze  
Wind Chill: 22°   Ceiling: 7500
Heat Index: 31°   Visibility: 5mi
Dew Point: 28°   Wind: 12mph
Humidity: 87%   Direction: 120°ESE
Pressure: 29.86"   Gusts: NA
Location:  42.23°N, 88.54°W
Report Text: KDKB 221455Z AUTO 12010KT 5SM BR OVC075 00/M02 A2986 RMK AO2 T10031023
Loading
Personal Weather Stations






























Interactive Weather Map New forecast layout! Learn more

10-Day Weather Forecast

Advertisements
Track Severe Weather on mobile